White Mountain Summit Weather observations

Data are for 10 minute period ending at time listed.
 Day   Time   Solar   Ave.   Ave.  Ave.  Vector    Max.    Baro.  
  of    of     Rad.   Air    Rel.  Wind   Wind     Wind   Press.  
Year   Day            Temp.  Hum.  Speed  Dir.     Gust           
2015   (PST)   W/m2    F      %     mph   deg.      mph     mb.   
-------------------------------------------------------------------
 149   13:30    0.0    40   51.5    24    268.7    33.0   999.0 
 149   13:40    0.0    39   52.7    26    269.6    33.0   999.0 
 149   13:50    0.0    39   53.1    21    266.3    33.0   999.0 
 149   14:00    0.0    39   53.1    23    268.3    30.6   999.0 
 149   14:10    0.0    39   53.3    26    269.8    37.7   999.0 
 149   14:20    0.0    39   52.5    22    268.4    30.6   999.0 
 149   14:30    0.0    40   51.5    20    262.1    33.0   999.0 
 149   14:40    0.0    39   52.7    20    266.6    33.0   999.0 
 149   14:50    0.0    40   50.9    28    266.9    37.7   999.0 
 149   15:00    0.0    40   50.8    21    269.9    25.9   999.0 
 149   15:10    0.0    40   52.1    24    269.1    33.0   999.0 
 149   15:20    0.0    39   54.2    33    267.5    49.4   999.0 
 149   15:30    0.0    39   54.1    27    268.2    37.7   999.0 
 149   15:40    0.0    40   53.1    22    271.0    28.2   999.0 
 149   15:50    0.0    41   50.6    18    269.2    28.2   999.0 
 149   16:00    0.0    40   51.7    23    262.0    30.6   999.0 
 149   16:10    0.0    40   52.7    25    269.4    35.3   999.0 
 149   16:20    0.0    39   53.9    27    267.2    35.3   999.0 
 149   16:30    0.0    40   54.1    26    268.0    35.3   999.0 
 149   16:40    0.0    40   53.1    25    268.2    30.6   999.0 
 149   16:50    0.0    39   54.0    22    269.3    30.6   999.0 
 149   17:00    0.0    39   55.0    26    268.8    33.0   999.0 
 149   17:10    0.0    38   54.6    21    266.7    30.6   999.0 
 149   17:20    0.0    38   54.7    20    266.6    28.2   999.0 
 149   17:30    0.0    38   54.9    22    270.0    33.0   999.0 
 149   17:40    4.0    38   56.0    24    269.0    30.6   999.0 
 149   17:50    0.0    38   55.9    24    269.9    33.0   999.0 
 149   18:00    0.0    38   55.2    25    267.2    30.6   999.0 
 149   18:10    2.0    38   54.9    25    262.8    30.6   999.0 
 149   18:20   33.0    37   55.0    28    267.1    33.0   999.0 
 149   18:30    0.0    37   55.9    28    268.4    33.0   999.0 
 149   18:40    0.0    37   55.3    24    261.9    28.2   999.0 
 149   18:50    0.0    36   55.3    22    257.3    25.9   999.0 
 149   19:00    0.0    36   55.0    22    253.6    25.9   999.0 
 149   19:10    0.0    36   55.7    20    255.4    23.5   999.0 
 149   19:20    0.0    36   55.6    21    265.3    28.2   999.0 
 149   19:30    0.0    36   55.1    22    260.3    25.9   999.0 
 149   19:40    0.0    35   55.0    20    257.7    25.9   999.0 
 149   19:50    0.0    35   55.6    20    261.4    25.9   999.0 
 149   20:00    0.0    34   56.5    21    261.4    28.2   999.0 
 149   20:10    0.0    34   56.4    20    249.3    28.2   999.0 
 149   20:20    0.0    34   55.8    21    247.9    30.6   999.0 
 149   20:30    0.0    33   58.0    21    257.4    30.6   999.0 
 149   20:40    0.0    33   58.8    22    265.4    28.2   999.0 
 149   20:50    0.0    33   59.4    17    238.8    21.2   999.0 
 149   21:00    0.0    33   59.8    14    244.9    21.2   999.0 
 149   21:10    0.0    33   59.2    15    216.4    21.2   999.0 
 149   21:20    0.0    33   58.6    14    212.3    18.8   999.0 
 149   21:30    0.0    33   58.8    13    208.0    16.5   999.0 
 149   21:40    0.0    33   58.5    13    217.7    16.5   999.0 
 149   21:50    0.0    33   58.2    13    217.4    18.8   999.0 
 149   22:00   30.0    33   56.9    14    216.0    18.8   999.0 
 149   22:10  227.0    33   55.4    14    213.3    18.8   999.0 
 149   22:20  309.0    32   57.0    13    210.1    16.5   999.0 
 149   22:30  337.0    32   58.8    11    204.4    16.5   999.0 
 149   22:40  412.0    32   61.5     9    226.1    11.8   999.0 
 149   22:50  794.0    33   60.5    10    252.5    11.8   999.0 
 149   23:00  1406.0    34   58.4    10    254.4    11.8   999.0 
 149   23:10  1474.0    34   58.6     8    252.3    11.8   999.0 
 149   23:20  1488.0    34   58.7     7    254.4     9.4   999.0 
 149   23:30  1732.0    34   58.5     6    254.7     9.4   999.0 
 149   23:40  1629.0    34   58.3     3    254.7     7.1   999.0 
 149   23:50  873.0    34   58.6     1    246.6     4.7   999.0 
 150    0:00  1042.0    34   58.4     7    194.2    11.8   999.0 
 150    0:10  1227.0    34   58.2     7    208.4     9.4   999.0 
 150    0:20  1276.0    34   58.4     6    190.8     7.1   999.0 
 150    0:30  1245.0    34   58.3     8    168.9    11.8   999.0 
 150    0:40  1417.0    34   58.3    10    163.3    11.8   999.0 
 150    0:50  1617.0    34   58.8     9    162.1    11.8   999.0 
 150    1:00  1569.0    34   58.3     8    162.1     9.4   999.0 
 150    1:10  1562.0    34   57.7     6    162.3     7.1   999.0 
 150    1:20  1581.0    34   57.4     5    179.5     7.1   999.0 
 150    1:30  1528.0    33   57.8     6    187.3     9.4   999.0 
 150    1:40  1553.0    33   57.7     7    190.4     9.4   999.0 
 150    1:50  1541.0    34   56.1     8    177.5     9.4   999.0 
 150    2:00  1514.0    33   57.7     8    180.3     9.4   999.0 
 150    2:10  1641.0    33   58.2    11    165.4    14.1   999.0 
 150    2:20  1982.0    33   57.6    10    177.6    11.8   999.0 
 150    2:30  2843.0    33   58.2    11    195.0    14.1   999.0 
 150    2:40  3504.0    32   58.7    12    201.9    16.5   999.0 
 150    2:50  3908.0    32   63.7    13    211.6    16.5   999.0 
 150    3:00  4141.0    32   64.9    14    206.4    16.5   999.0 
 150    3:10  4146.0    32   66.9    13    198.2    16.5   999.0 
 150    3:20  3849.0    32   67.1    13    191.7    16.5   999.0 
 150    3:30  3891.0    32   66.7    11    188.0    11.8   999.0 
 150    3:40  3884.0    32   66.1    13    193.2    16.5   999.0 
 150    3:50  3797.0    32   65.5    15    199.2    18.8   999.0 
 150    4:00  3758.0    32   64.2    13    197.3    18.8   999.0 
 150    4:10  3762.0    32   64.6    13    203.1    18.8   999.0 
 150    4:20  3883.0    32   64.4    12    199.9    16.5   999.0 
 150    4:30  3814.0    32   63.8    13    202.7    18.8   999.0 
 150    4:40  3839.0    32   63.3    14    202.9    18.8   999.0 
 150    4:50  3764.0    33   62.3    16    208.1    21.2   999.0 
 150    5:00  703.0    32   63.4    16    199.6    21.2   999.0 
 150    5:10  212.0    32   64.7    12    192.3    18.8   999.0 
 150    5:20   82.0    32   66.5    16    203.5    21.2   999.0 
 150    5:30    3.0    32   66.7    14    196.0    18.8   999.0 
 150    5:40    0.0    33   60.5    17    194.0    21.2   999.0 
 150    5:50    0.0    33   58.2    15    184.6    23.5   999.0 
 150    6:00    6.0    34   57.1    14    189.7    23.5   999.0 
 150    6:10   18.0    34   56.5    14    179.6    28.2   999.0 
 150    6:20   19.0    34   58.5    15    195.2    21.2   999.0 
 150    6:30   33.0    33   61.2    14    224.0    21.2   999.0 
 150    6:40   14.0    32   64.2    17    225.5    25.9   999.0 
 150    6:50    0.0    32   62.5    18    217.1    23.5   999.0 
 150    7:00    0.0    32   59.6    19    222.1    23.5   999.0 
 150    7:10    0.0    33   55.4    21    216.0    25.9   999.0 
 150    7:20    0.0    33   51.0    20    217.4    28.2   999.0 
 150    7:30    0.0    33   47.4    21    218.3    25.9   999.0 
 150    7:40    0.0    33   49.5    20    220.7    25.9   999.0 
 150    7:50    0.0    33   48.8    22    218.4    28.2   999.0 
 150    8:00    0.0    33   47.8    21    224.1    25.9   999.0 
 150    8:10    0.0    33   47.1    20    218.5    25.9   999.0 
 150    8:20    0.0    33   46.9    21    222.8    28.2   999.0 
 150    8:30    0.0    34   45.4    20    224.6    25.9   999.0 
 150    8:40    0.0    34   44.9    21    228.3    25.9   999.0 
 150    8:50    0.0    34   46.9    20    233.7    28.2   999.0 
 150    9:00    0.0    34   46.7    20    236.1    28.2   999.0 
 150    9:10    0.0    35   47.2    19    235.3    28.2   999.0 
 150    9:20    0.0    35   47.3    18    239.6    25.9   999.0 
 150    9:30    0.0    36   47.7    21    259.2    35.3   999.0 
 150    9:40    0.0    36   47.6    22    257.5    33.0   999.0 
 150    9:50    0.0    37   48.3    23    267.9    30.6   999.0 
 150   10:00    0.0    37   45.7    24    266.0    33.0   999.0 
 150   10:10    0.0    38   45.5    26    264.7    35.3   999.0 
 150   10:20    0.0    38   43.3    26    268.3    33.0   999.0 
 150   10:30    0.0    38   43.1    24    264.5    30.6   999.0 
 150   10:40    0.0    37   44.8    23    260.5    33.0   999.0 
 150   10:50    0.0    38   45.7    22    260.5    28.2   999.0 
 150   11:00    0.0    38   41.9    25    263.5    33.0   999.0 
 150   11:10    0.0    39   43.8    23    266.3    30.6   999.0 
 150   11:20    0.0    39   42.0    24    266.6    30.6   999.0 
 150   11:30    0.0    40   41.3    25    264.1    35.3   999.0 
 150   11:40    0.0    40   42.7    26    268.6    33.0   999.0 
 150   11:50    0.0    40   42.5    26    267.4    35.3   999.0 
 150   12:00    0.0    40   44.9    25    267.4    33.0   999.0 
 150   12:10    0.0    40   43.8    28    267.3    37.7   999.0 
 150   12:20    0.0    40   41.8    27    264.4    35.3   999.0 
 150   12:30    0.0    41   43.4    25    266.7    37.7   999.0 
 150   12:40    0.0    42   42.7    26    267.5    33.0   999.0 
 150   12:50    0.0    41   42.4    26    264.3    35.3   999.0 
 150   13:00    0.0    42   41.4    24    268.7    30.6   999.0 
 150   13:10    0.0    42   42.4    24    269.4    30.6   999.0 
 150   13:20    0.0    42   41.7    22    264.3    30.6   999.0 

Return to White Mountain graphs page.


Western Regional Climate Center,wrcc@dri.edu